sensor_id;sensor_type;location;lat;lon;timestamp;pressure;altitude;pressure_sealevel;temperature;humidity
75609;BME280;64194;51.044;13.780;2022-11-30T00:04:12;100959.47;;;4.55;69.56
75609;BME280;64194;51.044;13.780;2022-11-30T00:08:14;100952.63;;;4.48;69.90
75609;BME280;64194;51.044;13.780;2022-11-30T00:12:16;100959.63;;;4.49;69.91
75609;BME280;64194;51.044;13.780;2022-11-30T00:16:28;100976.25;;;4.51;69.83
75609;BME280;64194;51.044;13.780;2022-11-30T00:20:30;100963.97;;;4.51;69.53
75609;BME280;64194;51.044;13.780;2022-11-30T00:24:31;100968.41;;;4.48;69.73
75609;BME280;64194;51.044;13.780;2022-11-30T00:28:58;100964.91;;;4.47;69.65
75609;BME280;64194;51.044;13.780;2022-11-30T00:33:30;100965.78;;;4.48;69.74
75609;BME280;64194;51.044;13.780;2022-11-30T00:43:07;100970.13;;;4.50;69.46
75609;BME280;64194;51.044;13.780;2022-11-30T00:47:34;100977.13;;;4.50;69.42
75609;BME280;64194;51.044;13.780;2022-11-30T00:56:31;100971.03;;;4.48;69.70
75609;BME280;64194;51.044;13.780;2022-11-30T01:01:06;100970.28;;;4.44;69.55
75609;BME280;64194;51.044;13.780;2022-11-30T01:10:00;100965.88;;;4.45;69.68
75609;BME280;64194;51.044;13.780;2022-11-30T01:14:01;100969.41;;;4.44;69.54
75609;BME280;64194;51.044;13.780;2022-11-30T01:22:55;100965.97;;;4.42;69.53
75609;BME280;64194;51.044;13.780;2022-11-30T01:26:59;100960.72;;;4.42;69.72
75609;BME280;64194;51.044;13.780;2022-11-30T01:31:03;100967.66;;;4.43;69.57
75609;BME280;64194;51.044;13.780;2022-11-30T01:35:05;100962.41;;;4.43;69.84
75609;BME280;64194;51.044;13.780;2022-11-30T01:39:07;100964.13;;;4.44;69.52
75609;BME280;64194;51.044;13.780;2022-11-30T01:43:10;100965.97;;;4.42;69.40
75609;BME280;64194;51.044;13.780;2022-11-30T01:47:12;100966.00;;;4.40;69.44
75609;BME280;64194;51.044;13.780;2022-11-30T01:51:14;100968.69;;;4.37;69.63
75609;BME280;64194;51.044;13.780;2022-11-30T01:55:19;100969.69;;;4.33;69.84
75609;BME280;64194;51.044;13.780;2022-11-30T01:59:23;100965.41;;;4.29;69.84
75609;BME280;64194;51.044;13.780;2022-11-30T02:03:39;100974.28;;;4.25;70.07
75609;BME280;64194;51.044;13.780;2022-11-30T02:07:44;100967.34;;;4.21;70.29
75609;BME280;64194;51.044;13.780;2022-11-30T02:11:46;100978.81;;;4.18;70.21
75609;BME280;64194;51.044;13.780;2022-11-30T02:24:48;100976.63;;;4.00;70.61
75609;BME280;64194;51.044;13.780;2022-11-30T02:29:11;100988.13;;;3.96;71.39
75609;BME280;64194;51.044;13.780;2022-11-30T02:33:17;100979.47;;;3.91;71.08
75609;BME280;64194;51.044;13.780;2022-11-30T02:37:20;100994.50;;;3.86;71.41
75609;BME280;64194;51.044;13.780;2022-11-30T02:41:22;100981.34;;;3.86;71.54
75609;BME280;64194;51.044;13.780;2022-11-30T02:45:49;100986.66;;;3.83;71.59
75609;BME280;64194;51.044;13.780;2022-11-30T02:50:03;100980.53;;;3.83;71.48
75609;BME280;64194;51.044;13.780;2022-11-30T02:54:09;100981.47;;;3.80;71.34
75609;BME280;64194;51.044;13.780;2022-11-30T02:58:11;100983.28;;;3.78;71.74
75609;BME280;64194;51.044;13.780;2022-11-30T03:02:14;100992.88;;;3.79;71.65
75609;BME280;64194;51.044;13.780;2022-11-30T03:06:16;100992.13;;;3.74;72.11
75609;BME280;64194;51.044;13.780;2022-11-30T03:10:17;100998.34;;;3.70;71.86
75609;BME280;64194;51.044;13.780;2022-11-30T03:14:19;100993.13;;;3.68;72.00
75609;BME280;64194;51.044;13.780;2022-11-30T03:18:21;100997.59;;;3.65;72.09
75609;BME280;64194;51.044;13.780;2022-11-30T03:22:22;101000.28;;;3.62;71.96
75609;BME280;64194;51.044;13.780;2022-11-30T03:26:24;100996.97;;;3.54;72.30
75609;BME280;64194;51.044;13.780;2022-11-30T03:30:26;101009.22;;;3.53;72.00
75609;BME280;64194;51.044;13.780;2022-11-30T03:34:28;101004.88;;;3.51;72.56
75609;BME280;64194;51.044;13.780;2022-11-30T03:38:29;100998.66;;;3.55;72.06
75609;BME280;64194;51.044;13.780;2022-11-30T03:42:31;100999.63;;;3.51;72.16
75609;BME280;64194;51.044;13.780;2022-11-30T03:46:33;101008.41;;;3.50;72.31
75609;BME280;64194;51.044;13.780;2022-11-30T03:50:35;101006.78;;;3.44;71.64
75609;BME280;64194;51.044;13.780;2022-11-30T03:54:36;101004.09;;;3.47;72.07
75609;BME280;64194;51.044;13.780;2022-11-30T03:58:40;101005.84;;;3.47;71.93
75609;BME280;64194;51.044;13.780;2022-11-30T04:02:42;101006.94;;;3.36;72.50
75609;BME280;64194;51.044;13.780;2022-11-30T04:06:45;101012.38;;;3.27;72.86
75609;BME280;64194;51.044;13.780;2022-11-30T04:10:50;101011.56;;;3.24;73.19
75609;BME280;64194;51.044;13.780;2022-11-30T04:14:52;101020.25;;;3.27;72.80
75609;BME280;64194;51.044;13.780;2022-11-30T04:18:53;101006.41;;;3.21;73.46
75609;BME280;64194;51.044;13.780;2022-11-30T04:33:31;101015.28;;;3.14;73.27
75609;BME280;64194;51.044;13.780;2022-11-30T04:37:32;101010.16;;;3.08;73.90
75609;BME280;64194;51.044;13.780;2022-11-30T04:41:34;101013.66;;;3.07;73.75
75609;BME280;64194;51.044;13.780;2022-11-30T04:45:35;101015.19;;;3.18;73.60
75609;BME280;64194;51.044;13.780;2022-11-30T04:49:37;101014.38;;;3.16;73.32
75609;BME280;64194;51.044;13.780;2022-11-30T04:53:38;101011.88;;;3.10;73.90
75609;BME280;64194;51.044;13.780;2022-11-30T04:57:40;101019.66;;;3.13;73.58
75609;BME280;64194;51.044;13.780;2022-11-30T05:01:42;101025.00;;;3.09;73.99
75609;BME280;64194;51.044;13.780;2022-11-30T05:05:43;101021.44;;;3.11;73.38
75609;BME280;64194;51.044;13.780;2022-11-30T05:09:45;101029.38;;;3.10;73.42
75609;BME280;64194;51.044;13.780;2022-11-30T05:13:46;101034.63;;;3.10;73.57
75609;BME280;64194;51.044;13.780;2022-11-30T05:17:48;101033.75;;;3.09;73.20
75609;BME280;64194;51.044;13.780;2022-11-30T05:21:50;101039.69;;;3.17;72.64
75609;BME280;64194;51.044;13.780;2022-11-30T05:25:53;101043.25;;;3.15;72.56
75609;BME280;64194;51.044;13.780;2022-11-30T05:29:54;101043.31;;;3.12;72.28
75609;BME280;64194;51.044;13.780;2022-11-30T05:33:57;101054.66;;;3.12;72.29
75609;BME280;64194;51.044;13.780;2022-11-30T05:37:58;101058.25;;;3.08;72.52
75609;BME280;64194;51.044;13.780;2022-11-30T05:42:02;101058.22;;;3.10;71.87
75609;BME280;64194;51.044;13.780;2022-11-30T05:46:05;101060.81;;;3.11;71.81
75609;BME280;64194;51.044;13.780;2022-11-30T05:50:08;101063.59;;;3.04;72.42
75609;BME280;64194;51.044;13.780;2022-11-30T05:54:10;101070.63;;;3.02;72.72
75609;BME280;64194;51.044;13.780;2022-11-30T05:58:11;101072.25;;;3.07;72.23
75609;BME280;64194;51.044;13.780;2022-11-30T06:02:13;101074.09;;;3.02;72.48
75609;BME280;64194;51.044;13.780;2022-11-30T06:06:15;101075.94;;;2.97;72.69
75609;BME280;64194;51.044;13.780;2022-11-30T06:10:17;101084.66;;;2.99;72.72
75609;BME280;64194;51.044;13.780;2022-11-30T06:14:19;101082.94;;;2.98;72.93
75609;BME280;64194;51.044;13.780;2022-11-30T06:18:24;101075.16;;;2.93;73.45
75609;BME280;64194;51.044;13.780;2022-11-30T06:22:26;101085.72;;;2.89;73.56
75609;BME280;64194;51.044;13.780;2022-11-30T06:38:15;101092.09;;;2.73;74.09
75609;BME280;64194;51.044;13.780;2022-11-30T06:48:25;101091.31;;;2.68;74.17
75609;BME280;64194;51.044;13.780;2022-11-30T06:52:32;101086.91;;;2.70;74.12
75609;BME280;64194;51.044;13.780;2022-11-30T06:57:08;101100.97;;;2.66;74.32
75609;BME280;64194;51.044;13.780;2022-11-30T07:06:10;101114.00;;;2.72;73.95
75609;BME280;64194;51.044;13.780;2022-11-30T07:10:13;101121.78;;;2.78;73.70
75609;BME280;64194;51.044;13.780;2022-11-30T07:14:21;101127.44;;;3.03;72.71
75609;BME280;64194;51.044;13.780;2022-11-30T07:18:24;101128.03;;;3.20;72.31
75609;BME280;64194;51.044;13.780;2022-11-30T07:22:32;101130.25;;;3.41;71.53
75609;BME280;64194;51.044;13.780;2022-11-30T07:26:33;101123.72;;;3.62;70.65
75609;BME280;64194;51.044;13.780;2022-11-30T07:30:39;101132.53;;;4.02;69.03
75609;BME280;64194;51.044;13.780;2022-11-30T07:34:40;101143.06;;;4.41;67.66
75609;BME280;64194;51.044;13.780;2022-11-30T07:38:46;101145.53;;;4.84;66.01
75609;BME280;64194;51.044;13.780;2022-11-30T07:42:56;101139.28;;;5.23;64.95
75609;BME280;64194;51.044;13.780;2022-11-30T07:46:58;101138.13;;;5.66;62.77
75609;BME280;64194;51.044;13.780;2022-11-30T07:51:06;101136.22;;;6.02;61.64
75609;BME280;64194;51.044;13.780;2022-11-30T07:55:08;101135.75;;;6.46;60.08
75609;BME280;64194;51.044;13.780;2022-11-30T07:59:10;101134.47;;;7.12;58.12
75609;BME280;64194;51.044;13.780;2022-11-30T08:03:14;101140.94;;;7.53;56.43
75609;BME280;64194;51.044;13.780;2022-11-30T08:07:16;101146.50;;;7.95;55.33
75609;BME280;64194;51.044;13.780;2022-11-30T08:11:20;101134.63;;;8.28;53.73
75609;BME280;64194;51.044;13.780;2022-11-30T08:15:22;101138.63;;;8.62;53.06
75609;BME280;64194;51.044;13.780;2022-11-30T08:19:32;101137.69;;;8.85;52.20
75609;BME280;64194;51.044;13.780;2022-11-30T08:23:37;101150.16;;;9.24;50.80
75609;BME280;64194;51.044;13.780;2022-11-30T08:27:57;101155.47;;;9.65;49.75
75609;BME280;64194;51.044;13.780;2022-11-30T08:32:04;101155.28;;;9.88;48.97
75609;BME280;64194;51.044;13.780;2022-11-30T08:36:18;101152.44;;;10.32;47.64
75609;BME280;64194;51.044;13.780;2022-11-30T08:40:42;101156.59;;;10.37;47.23
75609;BME280;64194;51.044;13.780;2022-11-30T08:49:40;101168.44;;;10.30;47.12
75609;BME280;64194;51.044;13.780;2022-11-30T08:53:50;101175.47;;;10.50;47.30
75609;BME280;64194;51.044;13.780;2022-11-30T08:58:03;101180.22;;;10.98;45.65
75609;BME280;64194;51.044;13.780;2022-11-30T09:02:14;101177.22;;;11.40;44.39
75609;BME280;64194;51.044;13.780;2022-11-30T09:06:28;101173.16;;;11.85;44.14
75609;BME280;64194;51.044;13.780;2022-11-30T09:10:33;101186.63;;;12.63;41.65
75609;BME280;64194;51.044;13.780;2022-11-30T09:14:35;101189.19;;;11.66;43.15
75609;BME280;64194;51.044;13.780;2022-11-30T09:18:38;101180.28;;;12.17;43.03
75609;BME280;64194;51.044;13.780;2022-11-30T09:22:40;101183.50;;;13.02;40.82
75609;BME280;64194;51.044;13.780;2022-11-30T09:26:42;101186.03;;;13.65;39.53
75609;BME280;64194;51.044;13.780;2022-11-30T09:40:29;101181.63;;;14.22;38.05
75609;BME280;64194;51.044;13.780;2022-11-30T09:45:00;101181.69;;;15.31;35.17
75609;BME280;64194;51.044;13.780;2022-11-30T09:49:07;101171.38;;;16.15;34.01
75609;BME280;64194;51.044;13.780;2022-11-30T09:53:20;101183.41;;;16.09;33.83
75609;BME280;64194;51.044;13.780;2022-11-30T09:57:33;101187.78;;;15.06;35.61
75609;BME280;64194;51.044;13.780;2022-11-30T10:01:42;101180.75;;;15.18;35.47
75609;BME280;64194;51.044;13.780;2022-11-30T10:09:56;101167.50;;;16.44;33.27
75609;BME280;64194;51.044;13.780;2022-11-30T10:18:42;101170.69;;;15.48;34.93
75609;BME280;64194;51.044;13.780;2022-11-30T10:23:04;101169.09;;;14.65;36.60
75609;BME280;64194;51.044;13.780;2022-11-30T10:27:17;101183.69;;;13.15;39.50
75609;BME280;64194;51.044;13.780;2022-11-30T10:31:34;101172.91;;;12.22;41.69
75609;BME280;64194;51.044;13.780;2022-11-30T10:35:41;101157.50;;;11.79;43.02
75609;BME280;64194;51.044;13.780;2022-11-30T10:44:08;101168.75;;;12.65;40.75
75609;BME280;64194;51.044;13.780;2022-11-30T10:52:30;101155.34;;;13.72;38.54
75609;BME280;64194;51.044;13.780;2022-11-30T10:56:33;101153.06;;;15.19;36.13
75609;BME280;64194;51.044;13.780;2022-11-30T11:00:34;101154.44;;;16.40;33.35
75609;BME280;64194;51.044;13.780;2022-11-30T11:04:36;101161.78;;;17.22;31.86
75609;BME280;64194;51.044;13.780;2022-11-30T11:08:37;101161.31;;;17.28;32.22
75609;BME280;64194;51.044;13.780;2022-11-30T11:12:45;101152.88;;;18.35;30.09
75609;BME280;64194;51.044;13.780;2022-11-30T11:17:03;101149.66;;;19.50;29.13
75609;BME280;64194;51.044;13.780;2022-11-30T11:21:15;101161.63;;;20.29;26.72
75609;BME280;64194;51.044;13.780;2022-11-30T11:25:31;101166.28;;;19.55;27.60
75609;BME280;64194;51.044;13.780;2022-11-30T11:29:34;101154.69;;;18.02;30.14
75609;BME280;64194;51.044;13.780;2022-11-30T11:33:49;101141.53;;;16.57;33.21
75609;BME280;64194;51.044;13.780;2022-11-30T11:37:51;101151.69;;;14.45;36.60
75609;BME280;64194;51.044;13.780;2022-11-30T11:41:53;101143.69;;;13.59;38.98
75609;BME280;64194;51.044;13.780;2022-11-30T11:46:08;101153.00;;;12.61;40.27
75609;BME280;64194;51.044;13.780;2022-11-30T11:54:42;101171.97;;;13.02;38.83
75609;BME280;64194;51.044;13.780;2022-11-30T11:59:18;101154.16;;;12.08;41.03
75609;BME280;64194;51.044;13.780;2022-11-30T12:08:16;101148.72;;;11.08;43.82
75609;BME280;64194;51.044;13.780;2022-11-30T12:12:38;101149.09;;;10.64;45.11
75609;BME280;64194;51.044;13.780;2022-11-30T12:36:23;101149.06;;;11.36;43.57
75609;BME280;64194;51.044;13.780;2022-11-30T12:49:53;101148.50;;;12.14;42.59
75609;BME280;64194;51.044;13.780;2022-11-30T12:54:27;101146.72;;;16.35;34.21
75609;BME280;64194;51.044;13.780;2022-11-30T12:59:21;101151.53;;;17.50;31.26
75609;BME280;64194;51.044;13.780;2022-11-30T13:18:14;101150.16;;;11.15;44.07
75609;BME280;64194;51.044;13.780;2022-11-30T13:26:56;101148.75;;;11.59;43.60
75609;BME280;64194;51.044;13.780;2022-11-30T13:31:42;101148.19;;;12.36;41.23
75609;BME280;64194;51.044;13.780;2022-11-30T13:35:52;101154.81;;;10.93;44.35
75609;BME280;64194;51.044;13.780;2022-11-30T13:39:56;101160.06;;;10.00;47.18
75609;BME280;64194;51.044;13.780;2022-11-30T13:43:58;101157.16;;;9.66;48.24
75609;BME280;64194;51.044;13.780;2022-11-30T13:48:27;101164.09;;;9.70;48.13
75609;BME280;64194;51.044;13.780;2022-11-30T14:01:31;101181.06;;;9.04;50.72
75609;BME280;64194;51.044;13.780;2022-11-30T14:05:37;101188.78;;;8.88;51.25
75609;BME280;64194;51.044;13.780;2022-11-30T14:13:42;101179.88;;;8.67;51.98
75609;BME280;64194;51.044;13.780;2022-11-30T14:17:45;101179.84;;;8.46;52.47
75609;BME280;64194;51.044;13.780;2022-11-30T14:21:47;101179.03;;;8.20;53.05
75609;BME280;64194;51.044;13.780;2022-11-30T14:25:52;101180.31;;;8.10;53.84
75609;BME280;64194;51.044;13.780;2022-11-30T14:29:59;101187.31;;;8.11;53.76
75609;BME280;64194;51.044;13.780;2022-11-30T14:34:10;101185.63;;;7.85;54.79
75609;BME280;64194;51.044;13.780;2022-11-30T14:38:23;101191.13;;;7.54;55.72
75609;BME280;64194;51.044;13.780;2022-11-30T14:42:28;101192.13;;;7.26;56.56
75609;BME280;64194;51.044;13.780;2022-11-30T14:46:32;101186.44;;;7.11;56.98
75609;BME280;64194;51.044;13.780;2022-11-30T14:50:41;101184.09;;;7.02;57.66
75609;BME280;64194;51.044;13.780;2022-11-30T14:54:55;101183.13;;;7.05;57.96
75609;BME280;64194;51.044;13.780;2022-11-30T14:59:17;101177.31;;;6.94;58.14
75609;BME280;64194;51.044;13.780;2022-11-30T15:03:25;101184.50;;;6.90;58.30
75609;BME280;64194;51.044;13.780;2022-11-30T15:07:31;101182.19;;;6.80;58.66
75609;BME280;64194;51.044;13.780;2022-11-30T15:11:40;101189.03;;;6.87;58.78
75609;BME280;64194;51.044;13.780;2022-11-30T15:15:50;101185.16;;;6.97;58.84
75609;BME280;64194;51.044;13.780;2022-11-30T15:19:52;101194.28;;;7.14;58.81
75609;BME280;64194;51.044;13.780;2022-11-30T15:23:55;101190.81;;;7.12;58.22
75609;BME280;64194;51.044;13.780;2022-11-30T15:27:58;101193.81;;;7.02;58.40
75609;BME280;64194;51.044;13.780;2022-11-30T15:32:03;101199.03;;;7.03;58.79
75609;BME280;64194;51.044;13.780;2022-11-30T15:36:06;101200.03;;;6.99;58.56
75609;BME280;64194;51.044;13.780;2022-11-30T15:40:31;101203.31;;;7.07;58.45
75609;BME280;64194;51.044;13.780;2022-11-30T15:44:38;101197.97;;;7.09;58.65
75609;BME280;64194;51.044;13.780;2022-11-30T15:48:43;101191.88;;;7.07;58.70
75609;BME280;64194;51.044;13.780;2022-11-30T15:52:53;101193.88;;;6.99;58.70
75609;BME280;64194;51.044;13.780;2022-11-30T15:56:56;101197.75;;;6.89;59.40
75609;BME280;64194;51.044;13.780;2022-11-30T16:01:06;101197.69;;;6.90;59.92
75609;BME280;64194;51.044;13.780;2022-11-30T16:09:21;101206.19;;;7.00;59.27
75609;BME280;64194;51.044;13.780;2022-11-30T16:13:26;101203.03;;;6.89;60.03
75609;BME280;64194;51.044;13.780;2022-11-30T16:17:31;101194.72;;;7.01;59.16
75609;BME280;64194;51.044;13.780;2022-11-30T16:21:34;101202.47;;;7.05;59.18
75609;BME280;64194;51.044;13.780;2022-11-30T16:25:36;101200.72;;;7.06;59.72
75609;BME280;64194;51.044;13.780;2022-11-30T16:29:42;101201.41;;;7.11;58.97
75609;BME280;64194;51.044;13.780;2022-11-30T16:33:55;101203.47;;;7.03;59.39
75609;BME280;64194;51.044;13.780;2022-11-30T16:37:58;101202.16;;;6.88;59.69
75609;BME280;64194;51.044;13.780;2022-11-30T16:42:00;101198.91;;;6.80;59.63
75609;BME280;64194;51.044;13.780;2022-11-30T16:46:03;101210.81;;;6.65;60.32
75609;BME280;64194;51.044;13.780;2022-11-30T16:50:05;101203.50;;;6.46;61.06
75609;BME280;64194;51.044;13.780;2022-11-30T16:54:10;101200.88;;;6.44;61.85
75609;BME280;64194;51.044;13.780;2022-11-30T16:58:14;101205.81;;;6.56;61.15
75609;BME280;64194;51.044;13.780;2022-11-30T17:02:19;101208.59;;;6.52;61.08
75609;BME280;64194;51.044;13.780;2022-11-30T17:06:27;101212.63;;;6.34;61.36
75609;BME280;64194;51.044;13.780;2022-11-30T17:10:32;101209.91;;;6.37;62.03
75609;BME280;64194;51.044;13.780;2022-11-30T17:14:34;101222.06;;;6.43;61.74
75609;BME280;64194;51.044;13.780;2022-11-30T17:18:35;101223.47;;;6.54;62.06
75609;BME280;64194;51.044;13.780;2022-11-30T17:22:40;101221.28;;;6.68;61.30
75609;BME280;64194;51.044;13.780;2022-11-30T17:26:48;101221.38;;;6.65;60.96
75609;BME280;64194;51.044;13.780;2022-11-30T17:30:50;101219.91;;;6.55;61.51
75609;BME280;64194;51.044;13.780;2022-11-30T17:34:58;101227.19;;;6.47;61.61
75609;BME280;64194;51.044;13.780;2022-11-30T17:39:07;101227.28;;;6.44;61.71
75609;BME280;64194;51.044;13.780;2022-11-30T17:43:09;101233.72;;;6.34;62.66
75609;BME280;64194;51.044;13.780;2022-11-30T17:47:11;101242.34;;;6.41;62.65
75609;BME280;64194;51.044;13.780;2022-11-30T17:51:13;101250.03;;;6.48;62.33
75609;BME280;64194;51.044;13.780;2022-11-30T17:55:23;101246.56;;;6.46;62.93
75609;BME280;64194;51.044;13.780;2022-11-30T17:59:26;101256.38;;;6.43;63.46
75609;BME280;64194;51.044;13.780;2022-11-30T18:03:28;101255.84;;;6.30;64.52
75609;BME280;64194;51.044;13.780;2022-11-30T18:07:31;101260.06;;;6.36;64.10
75609;BME280;64194;51.044;13.780;2022-11-30T18:11:33;101259.50;;;6.26;65.04
75609;BME280;64194;51.044;13.780;2022-11-30T18:15:35;101252.66;;;6.19;64.73
75609;BME280;64194;51.044;13.780;2022-11-30T18:19:54;101260.16;;;6.02;65.51
75609;BME280;64194;51.044;13.780;2022-11-30T18:23:57;101264.16;;;5.82;65.91
75609;BME280;64194;51.044;13.780;2022-11-30T18:27:59;101272.69;;;5.58;67.05
75609;BME280;64194;51.044;13.780;2022-11-30T18:32:01;101270.44;;;5.44;67.29
75609;BME280;64194;51.044;13.780;2022-11-30T18:36:04;101282.38;;;5.22;67.85
75609;BME280;64194;51.044;13.780;2022-11-30T18:40:11;101290.03;;;4.96;68.95
75609;BME280;64194;51.044;13.780;2022-11-30T18:44:15;101291.97;;;4.86;69.40
75609;BME280;64194;51.044;13.780;2022-11-30T18:48:17;101299.75;;;4.92;69.66
75609;BME280;64194;51.044;13.780;2022-11-30T18:52:19;101294.56;;;4.89;69.45
75609;BME280;64194;51.044;13.780;2022-11-30T18:56:21;101299.75;;;4.92;69.57
75609;BME280;64194;51.044;13.780;2022-11-30T19:00:23;101295.09;;;5.03;69.23
75609;BME280;64194;51.044;13.780;2022-11-30T19:04:28;101309.09;;;5.05;68.61
75609;BME280;64194;51.044;13.780;2022-11-30T19:08:30;101307.50;;;4.98;68.76
75609;BME280;64194;51.044;13.780;2022-11-30T19:12:34;101299.72;;;4.94;68.94
75609;BME280;64194;51.044;13.780;2022-11-30T19:16:50;101305.44;;;4.74;69.01
75609;BME280;64194;51.044;13.780;2022-11-30T19:20:55;101305.44;;;4.74;69.18
75609;BME280;64194;51.044;13.780;2022-11-30T19:24:56;101313.72;;;4.54;69.58
75609;BME280;64194;51.044;13.780;2022-11-30T19:28:58;101309.53;;;4.46;70.04
75609;BME280;64194;51.044;13.780;2022-11-30T19:33:00;101313.06;;;4.43;69.74
75609;BME280;64194;51.044;13.780;2022-11-30T19:37:01;101313.03;;;4.45;69.62
75609;BME280;64194;51.044;13.780;2022-11-30T19:41:07;101315.59;;;4.48;69.33
75609;BME280;64194;51.044;13.780;2022-11-30T19:45:09;101311.25;;;4.47;69.43
75609;BME280;64194;51.044;13.780;2022-11-30T19:49:11;101315.59;;;4.48;69.82
75609;BME280;64194;51.044;13.780;2022-11-30T19:53:13;101330.66;;;4.41;68.82
75609;BME280;64194;51.044;13.780;2022-11-30T19:58:04;101324.00;;;4.22;69.84
75609;BME280;64194;51.044;13.780;2022-11-30T20:15:46;101348.97;;;3.98;69.92
75609;BME280;64194;51.044;13.780;2022-11-30T20:20:09;101350.13;;;3.82;70.58
75609;BME280;64194;51.044;13.780;2022-11-30T20:25:14;101348.97;;;3.98;70.33
75609;BME280;64194;51.044;13.780;2022-11-30T20:29:19;101354.19;;;4.01;70.65
75609;BME280;64194;51.044;13.780;2022-11-30T20:33:22;101353.25;;;4.04;69.94
75609;BME280;64194;51.044;13.780;2022-11-30T20:37:27;101360.72;;;3.79;71.31
75609;BME280;64194;51.044;13.780;2022-11-30T20:41:32;101360.88;;;3.70;71.29
75609;BME280;64194;51.044;13.780;2022-11-30T20:45:41;101363.75;;;3.53;71.23
75609;BME280;64194;51.044;13.780;2022-11-30T20:49:51;101372.63;;;3.45;72.18
75609;BME280;64194;51.044;13.780;2022-11-30T20:54:45;101369.63;;;3.70;71.99
75609;BME280;64194;51.044;13.780;2022-11-30T20:58:49;101369.44;;;3.81;70.71
75609;BME280;64194;51.044;13.780;2022-11-30T21:03:02;101376.66;;;3.67;71.09
75609;BME280;64194;51.044;13.780;2022-11-30T21:07:04;101374.28;;;3.52;72.27
75609;BME280;64194;51.044;13.780;2022-11-30T21:11:12;101374.28;;;3.53;72.45
75609;BME280;64194;51.044;13.780;2022-11-30T21:15:14;101379.09;;;3.81;71.47
75609;BME280;64194;51.044;13.780;2022-11-30T21:19:18;101380.69;;;3.89;70.96
75609;BME280;64194;51.044;13.780;2022-11-30T21:23:20;101392.31;;;3.74;70.80
75609;BME280;64194;51.044;13.780;2022-11-30T21:27:25;101395.38;;;3.46;72.42
75609;BME280;64194;51.044;13.780;2022-11-30T21:31:28;101387.81;;;3.24;73.10
75609;BME280;64194;51.044;13.780;2022-11-30T21:35:30;101392.03;;;3.36;72.12
75609;BME280;64194;51.044;13.780;2022-11-30T21:39:32;101388.53;;;3.35;71.94
75609;BME280;64194;51.044;13.780;2022-11-30T21:43:35;101399.03;;;3.35;71.94
75609;BME280;64194;51.044;13.780;2022-11-30T21:47:37;101402.03;;;3.08;71.98
75609;BME280;64194;51.044;13.780;2022-11-30T21:51:41;101404.88;;;2.90;72.63
75609;BME280;64194;51.044;13.780;2022-11-30T21:55:43;101408.56;;;2.77;72.96
75609;BME280;64194;51.044;13.780;2022-11-30T22:00:03;101410.63;;;2.47;74.23
75609;BME280;64194;51.044;13.780;2022-11-30T22:04:08;101410.69;;;2.43;74.41
75609;BME280;64194;51.044;13.780;2022-11-30T22:08:11;101405.38;;;2.47;74.64
75609;BME280;64194;51.044;13.780;2022-11-30T22:12:12;101403.59;;;2.52;74.96
75609;BME280;64194;51.044;13.780;2022-11-30T22:16:15;101399.94;;;2.66;73.75
75609;BME280;64194;51.044;13.780;2022-11-30T22:20:17;101410.50;;;2.60;74.05
75609;BME280;64194;51.044;13.780;2022-11-30T22:24:19;101408.81;;;2.54;74.10
75609;BME280;64194;51.044;13.780;2022-11-30T22:28:20;101411.50;;;2.46;75.20
75609;BME280;64194;51.044;13.780;2022-11-30T22:32:22;101409.00;;;2.39;74.98
75609;BME280;64194;51.044;13.780;2022-11-30T22:36:26;101412.50;;;2.36;75.15
75609;BME280;64194;51.044;13.780;2022-11-30T22:50:12;101409.16;;;2.19;75.08
75609;BME280;64194;51.044;13.780;2022-11-30T22:54:14;101402.28;;;2.09;75.51
75609;BME280;64194;51.044;13.780;2022-11-30T22:58:16;101410.06;;;2.18;75.13
75609;BME280;64194;51.044;13.780;2022-11-30T23:02:17;101417.03;;;2.21;75.13
75609;BME280;64194;51.044;13.780;2022-11-30T23:06:20;101418.78;;;2.20;74.80
75609;BME280;64194;51.044;13.780;2022-11-30T23:10:22;101404.84;;;2.17;74.73
75609;BME280;64194;51.044;13.780;2022-11-30T23:14:24;101410.84;;;2.26;74.84
75609;BME280;64194;51.044;13.780;2022-11-30T23:18:28;101403.88;;;2.25;74.55
75609;BME280;64194;51.044;13.780;2022-11-30T23:22:30;101403.03;;;2.23;74.71
75609;BME280;64194;51.044;13.780;2022-11-30T23:26:36;101402.22;;;2.15;75.14
75609;BME280;64194;51.044;13.780;2022-11-30T23:30:38;101406.59;;;2.15;75.39
75609;BME280;64194;51.044;13.780;2022-11-30T23:34:39;101398.47;;;2.40;74.44
75609;BME280;64194;51.044;13.780;2022-11-30T23:38:41;101398.63;;;2.25;74.58
75609;BME280;64194;51.044;13.780;2022-11-30T23:43:17;101396.88;;;2.24;74.78
75609;BME280;64194;51.044;13.780;2022-11-30T23:52:11;101395.16;;;2.23;74.49
75609;BME280;64194;51.044;13.780;2022-11-30T23:56:14;101398.66;;;2.22;74.38
